Share

Antlers, OK

4:15 PM CDT on April 23, 2014 (GMT -0500)
Stamper Municipal (KHHW) Elev 571 ft | 34.03 °N, 95.54 °W | Change Station

Current weather conditions updated 20 minutes ago

Scattered Clouds
Scattered Clouds
86 °F
Feels Like 87 °F
N
10
Wind Variable Wind from South
Gusts 20 mph
Sunrise 6:41 AM
Sunset 8:00 PM
Moon Waning Crescent

Tomorrow is forecast to be Much Cooler than today.

Pressure 29.83 in
Visibility 10.0 miles
Clouds Scattered Clouds 5000 ft
Heat Index 87 °F
Dew Point 62 °F
Humidity 45%
Rainfall 0.00 in
Snow Depth Not available.
UV 6 out of 16
Pollen 9.30 out of 12
Air Quality Not available.
Flu Activity Regional
METAR KHHW 232055Z AUTO 17009G17KT 10SM SCT050 30/17 A2983 RMK AO2 T03000169

More Conditions Fewer Conditions

Pressure 29.83 in
Visibility 10.0 miles
Clouds Scattered Clouds 5000 ft
Heat Index 87 °F
Dew Point 62 °F
Humidity 45%
Rainfall 0.00 in
Snow Depth Not available.
UV 6 out of 16
Pollen 9.30 out of 12
Air Quality Not available.
Flu Activity Regional
METAR KHHW 232055Z AUTO 17009G17KT 10SM SCT050 30/17 A2983 RMK AO2 T03000169

More Conditions Fewer Conditions

10-Day Weather Forecast

Almanac

Astronomy

Apr. 23, 2014 Rise Set
Actual Time 6:41 AM CDT 8:00 PM CDT
Civil Twilight 6:15 AM CDT 8:26 PM CDT
Nautical Twilight 5:44 AM CDT 8:58 PM CDT
Astronomical Twilight 5:11 AM CDT 9:30 PM CDT
Moon 2:57 AM CDT 2:25 PM CDT
Length of Visible Light 14h 11m
Length of Day
13h 18m
Tomorrow will be 1m 55s longer.
Waning Crescent, 33% of the Moon is Illuminated
Today
Waning Crescent
Apr 29
New
May 6
First Quarter
May 14
Full
May 21
Last Quarter

Today's Extremes

State Highs State Lows

Community

  • Stunning Sunrise
    Stunning Sunrise
  • spring flowers
    spring flowers
  • Earth Day Spectrum Ove' Blue
    Earth Day Spectrum Ove' Blue
  • BARN B&W
    BARN B&W
  • April Sunset
    April Sunset

WunderPhotos

Upload Photos

1,704,412 photos uploaded!

WunderBlogs® & News

Nearby

Snow Depth

Station Depth Elevation
No new snow has been reported.

Coastal Water Temperatures

Place Temperature
No Stations Reporting

Earthquake Activity

City Distance Mag. Time & Date
Stillwater, Oklahoma 150 miles 2.8 5:30 PM CDT
2014-04-19
Stillwater, Oklahoma 149 miles 2.7 3:40 AM CDT
2014-04-19
Farmers Branch, Texas 119 miles 2.5 2:44 PM CDT
2014-04-17
Minimum magnitude displayed is 2.5.

Nearby Weather Stations

Station Location Temp. Heat Index Dew Point Humidity Wind Precip. Elev Updated Type
HADS HUGO LAKE RESERVOIR NEAR SAWYER OK, Sawyer, OK 82 °F 82 °F 56 °F 42% SSE  at  12 mph 0.00 in / hr 465 ft 3:00 PM CDT MADIS

Show More Stations Show Fewer Stations

What do you think?

We're not finished. Please let us know what you like, what you don't like, and what you are still missing.